Time;durP1;ratioP1;P1;durP2;ratioP2;P2;SDS_P1;SDS_P2;PMS_P1;PMS_P2;Temp;Humidity;BMP_temperature;BMP_pressure;BME280_temperature;BME280_humidity;BME280_pressure;Samples;Min_cycle;Max_cycle;Signal;HPM_P1;HPM_P2
2022/01/30 00:02:15;;;;;;;19.58;8.18;;;;;;;;;;6273488;22;20039;-90
2022/01/30 00:04:41;;;;;;;18.83;7.88;;;8.70;99.90;;;;;;6273022;22;20011;-88
2022/01/30 00:07:09;;;;;;;21.48;8.88;;;8.70;99.90;;;;;;6272840;22;20068;-87
2022/01/30 00:09:35;;;;;;;21.75;8.13;;;8.70;99.90;;;;;;6272955;22;20008;-87
2022/01/30 00:12:03;;;;;;;18.25;8.25;;;8.70;99.90;;;;;;6273125;22;20047;-88
2022/01/30 00:14:33;;;;;;;;;;;8.70;99.90;;;;;;6273600;22;20008;-87
2022/01/30 00:17:07;;;;;;;18.15;8.57;;;8.70;99.90;;;;;;6272751;22;19957;-87
2022/01/30 00:22:53;;;;;;;19.85;8.80;;;8.60;99.90;;;;;;6274800;22;20015;-88
2022/01/30 00:24:55;;;;;;;12.85;7.88;;;8.60;99.90;;;;;;6264143;22;20071;-88
2022/01/30 00:27:47;;;;;;;21.02;9.43;;;8.60;99.90;;;;;;6275294;22;20003;-89
2022/01/30 00:30:14;;;;;;;16.33;8.25;;;8.60;99.90;;;;;;6273928;22;19996;-89
2022/01/30 00:32:40;;;;;;;;;;;8.60;99.90;;;;;;6273191;22;20348;-89
2022/01/30 00:35:07;;;;;;;18.10;8.70;;;8.70;99.90;;;;;;6272999;22;19899;-88
2022/01/30 00:37:32;;;;;;;21.60;8.68;;;8.60;99.90;;;;;;6273013;22;20022;-89
2022/01/30 00:39:58;;;;;;;18.80;8.45;;;8.60;99.90;;;;;;6273065;22;20031;-89
2022/01/30 00:42:24;;;;;;;19.02;8.52;;;8.60;99.90;;;;;;6273412;22;20007;-89
2022/01/30 00:44:49;;;;;;;20.02;8.40;;;8.60;99.90;;;;;;6279011;22;20455;-89
2022/01/30 00:47:15;;;;;;;15.18;8.48;;;8.60;99.90;;;;;;6278240;22;20000;-87
2022/01/30 00:49:41;;;;;;;28.73;9.05;;;8.60;99.90;;;;;;6280869;22;20344;-88
2022/01/30 00:52:07;;;;;;;19.83;9.00;;;8.60;99.90;;;;;;6273831;22;20002;-89
2022/01/30 00:54:33;;;;;;;18.80;8.90;;;8.60;99.90;;;;;;6272587;22;20011;-86
2022/01/30 00:56:59;;;;;;;18.15;9.05;;;8.60;99.90;;;;;;6272476;22;20012;-90
2022/01/30 00:59:24;;;;;;;16.73;8.20;;;8.60;99.90;;;;;;6272327;22;20023;-90
2022/01/30 01:01:50;;;;;;;19.88;8.35;;;;;;;;;;6272844;22;20018;-87
2022/01/30 01:04:17;;;;;;;16.08;8.40;;;8.60;99.90;;;;;;6272541;22;20108;-87
2022/01/30 01:06:48;;;;;;;15.63;8.68;;;8.60;99.90;;;;;;6272390;22;20415;-89
2022/01/30 01:09:15;;;;;;;15.05;9.02;;;8.60;99.90;;;;;;6272219;22;20551;-90
2022/01/30 01:12:12;;;;;;;18.08;8.70;;;8.60;99.90;;;;;;6272516;22;20004;-87
2022/01/30 01:25:16;;;;;;;15.75;7.97;;;8.50;99.90;;;;;;6273494;22;20018;-88
2022/01/30 01:27:42;;;;;;;19.27;7.63;;;8.50;99.90;;;;;;6271914;22;20008;-88
2022/01/30 01:30:08;;;;;;;15.95;8.13;;;8.60;99.90;;;;;;6271788;22;20004;-90
2022/01/30 01:32:34;;;;;;;14.40;8.10;;;8.60;99.90;;;;;;6272053;22;20053;-90
2022/01/30 01:35:00;;;;;;;14.63;7.90;;;8.60;99.90;;;;;;6271804;22;20007;-87
2022/01/30 01:37:26;;;;;;;13.48;7.63;;;8.60;99.90;;;;;;6272589;22;20024;-89
2022/01/30 01:39:54;;;;;;;13.48;7.25;;;8.60;99.90;;;;;;6272955;22;19999;-90
2022/01/30 01:42:19;;;;;;;19.57;7.60;;;8.60;99.90;;;;;;6272413;22;20459;-89
2022/01/30 01:44:49;;;;;;;12.48;8.20;;;8.60;99.90;;;;;;6272159;22;20217;-90
2022/01/30 01:47:17;;;;;;;10.82;6.72;;;8.60;99.90;;;;;;6272241;22;20008;-92
2022/01/30 01:49:46;;;;;;;14.07;6.75;;;8.60;99.90;;;;;;6271175;22;20059;-88
2022/01/30 01:54:44;;;;;;;11.43;7.18;;;8.60;99.90;;;;;;6273471;22;20008;-89
2022/01/30 01:57:10;;;;;;;19.45;8.00;;;8.60;99.90;;;;;;6270763;22;20011;-91
2022/01/30 01:59:38;;;;;;;14.65;8.50;;;;;;;;;;6272256;22;20015;-89
2022/01/30 02:02:09;;;;;;;12.40;7.28;;;8.60;99.90;;;;;;6271564;22;20003;-91
2022/01/30 02:04:37;;;;;;;20.20;7.28;;;8.60;99.90;;;;;;6271727;22;20008;-90
2022/01/30 02:09:41;;;;;;;11.40;7.45;;;;;;;;;;6273469;22;20503;-89
2022/01/30 02:12:15;;;;;;;7.78;6.13;;;8.60;99.90;;;;;;6271421;22;20525;-88
2022/01/30 02:14:51;;;;;;;13.85;6.68;;;8.60;99.90;;;;;;6271274;22;20383;-88
2022/01/30 02:25:49;;;;;;;12.27;6.85;;;8.50;99.90;;;;;;6273133;22;20038;-90
2022/01/30 02:28:17;;;;;;;12.90;6.93;;;8.60;99.90;;;;;;6271292;22;20007;-88
2022/01/30 02:30:54;;;;;;;;;;;8.60;99.90;;;;;;6272191;22;19999;-89
2022/01/30 02:33:23;;;;;;;11.40;6.35;;;8.60;99.90;;;;;;6271868;22;19982;-91
2022/01/30 02:35:49;;;;;;;15.68;7.68;;;8.50;99.90;;;;;;6272881;22;20030;-91
2022/01/30 02:38:16;;;;;;;12.70;6.72;;;8.60;99.90;;;;;;6271185;22;20011;-88
2022/01/30 02:40:45;;;;;;;11.13;7.13;;;8.50;99.90;;;;;;6271451;22;20000;-92
2022/01/30 02:43:13;;;;;;;10.27;6.93;;;8.50;99.90;;;;;;6271315;22;20004;-88
2022/01/30 02:45:50;;;;;;;11.95;7.05;;;8.50;99.90;;;;;;6272536;22;20006;-89
2022/01/30 02:48:32;;;;;;;12.07;6.60;;;8.60;99.90;;;;;;6271162;22;20008;-89
2022/01/30 02:51:22;;;;;;;15.00;7.63;;;8.50;99.90;;;;;;6272468;22;20004;-90
2022/01/30 02:54:02;;;;;;;10.82;6.88;;;;;;;;;;6271399;22;20003;-91
2022/01/30 02:56:29;;;;;;;9.02;6.78;;;8.60;99.90;;;;;;6271804;22;20011;-88
2022/01/30 02:58:55;;;;;;;9.82;6.82;;;8.50;99.90;;;;;;6272061;22;20030;-89
2022/01/30 03:01:25;;;;;;;14.30;7.35;;;8.60;99.90;;;;;;6272423;22;20432;-87
2022/01/30 03:03:51;;;;;;;15.43;7.07;;;;;;;;;;6272739;22;20050;-92
2022/01/30 03:06:50;;;;;;;9.07;6.82;;;8.60;99.90;;;;;;6271238;22;20015;-92
2022/01/30 03:09:18;;;;;;;14.68;7.07;;;8.50;99.90;;;;;;6271406;22;20007;-91
2022/01/30 03:11:56;;;;;;;11.38;7.45;;;8.60;99.90;;;;;;6272385;22;20004;-89
2022/01/30 03:14:43;;;;;;;;;;;;;;;;;;;;;
2022/01/30 03:17:24;;;;;;;12.35;6.70;;;8.50;99.90;;;;;;6281081;22;20286;-90
2022/01/30 03:20:02;;;;;;;12.77;7.10;;;8.50;99.90;;;;;;6279373;22;20007;-90
2022/01/30 03:22:38;;;;;;;;;;;8.50;99.90;;;;;;6274685;22;20004;-89
2022/01/30 03:25:12;;;;;;;9.77;6.93;;;8.50;99.90;;;;;;6272926;22;19922;-92
2022/01/30 03:27:54;;;;;;;;;;;;;;;;;;;;;
2022/01/30 03:31:00;;;;;;;11.13;6.88;;;8.50;99.90;;;;;;6272558;22;20088;-93
2022/01/30 03:33:31;;;;;;;11.63;7.45;;;8.50;99.90;;;;;;6270928;22;20394;-89
2022/01/30 03:35:57;;;;;;;12.68;6.72;;;;;;;;;;6270947;22;20014;-92
2022/01/30 03:38:24;;;;;;;10.52;6.78;;;8.50;99.90;;;;;;6271984;22;20057;-92
2022/01/30 03:41:22;;;;;;;;;;;;;;;;;;;;;
2022/01/30 03:44:00;;;;;;;;;;;8.60;99.90;;;;;;6274016;22;20086;-90
2022/01/30 03:46:35;;;;;;;8.13;5.63;;;;;;;;;;6271126;22;19899;-89
2022/01/30 03:49:14;;;;;;;;;;;;;;;;;;;;;
2022/01/30 03:51:59;;;;;;;10.63;6.55;;;8.50;99.90;;;;;;6272367;22;20546;-91
2022/01/30 03:54:42;;;;;;;11.02;6.30;;;;;;;;;;6271054;22;20011;-89
2022/01/30 03:57:36;;;;;;;;;;;;;;;;;;;;;
2022/01/30 04:00:09;;;;;;;9.50;6.70;;;8.50;99.90;;;;;;6273519;22;20067;-92
2022/01/30 04:02:37;;;;;;;12.05;6.90;;;8.50;99.90;;;;;;6270863;22;20011;-90
2022/01/30 04:05:07;;;;;;;8.82;6.40;;;;;;;;;;6273425;22;20035;-88
2022/01/30 04:07:43;;;;;;;10.57;7.18;;;8.50;99.90;;;;;;6302754;22;20094;-90
2022/01/30 04:10:48;;;;;;;;;;;;;;;;;;;;;
2022/01/30 04:13:05;;;;;;;11.38;7.10;;;;;;;;;;6294040;22;20335;-92
2022/01/30 04:16:00;;;;;;;17.70;7.47;;;8.60;99.90;;;;;;6302359;22;20061;-92
2022/01/30 04:22:26;;;;;;;14.30;7.07;;;8.50;99.90;;;;;;6304225;22;20074;-92
2022/01/30 04:28:26;;;;;;;;;;;;;;;;;;;;;
2022/01/30 04:31:24;;;;;;;10.60;6.72;;;8.50;99.90;;;;;;6241583;23;20071;-91
2022/01/30 04:33:57;;;;;;;9.18;6.35;;;8.50;99.90;;;;;;6277034;22;20447;-89
2022/01/30 04:36:44;;;;;;;;;;;;;;;;;;;;;
2022/01/30 04:53:49;;;;;;;;;;;;;;;;;;;;;
2022/01/30 05:02:46;;;;;;;7.68;5.45;;;;;;;;;;6305374;22;20011;-88
2022/01/30 05:07:47;;;;;;;7.78;5.72;;;8.50;99.90;;;;;;6304969;22;20007;-91
2022/01/30 05:10:16;;;;;;;8.20;6.10;;;8.50;99.90;;;;;;6277630;22;20064;-92
2022/01/30 05:12:53;;;;;;;8.65;6.78;;;;;;;;;;6277596;22;19999;-93
2022/01/30 05:15:22;;;;;;;8.63;6.53;;;8.50;99.90;;;;;;6303272;22;20007;-88
2022/01/30 05:18:02;;;;;;;13.13;6.78;;;8.50;99.90;;;;;;6277174;22;20090;-90
2022/01/30 05:20:30;;;;;;;9.63;6.25;;;8.50;99.90;;;;;;6277219;22;20007;-91
2022/01/30 05:22:59;;;;;;;6.85;5.72;;;9.50;99.90;;;;;;6276955;22;20008;-88
2022/01/30 05:25:27;;;;;;;7.18;5.60;;;8.40;99.90;;;;;;6276663;22;19996;-92
2022/01/30 05:27:53;;;;;;;;;;;8.50;99.90;;;;;;6278056;22;19999;-91
2022/01/30 05:30:21;;;;;;;19.92;5.47;;;8.40;99.90;;;;;;6276993;22;19978;-91
2022/01/30 05:32:48;;;;;;;20.42;6.60;;;;;;;;;;6277370;22;20021;-89
2022/01/30 05:35:17;;;;;;;22.50;6.00;;;8.30;99.90;;;;;;6304769;22;20018;-89
2022/01/30 05:37:53;;;;;;;25.55;5.63;;;8.30;99.90;;;;;;6276815;22;20044;-90
2022/01/30 05:40:19;;;;;;;32.42;6.15;;;8.30;99.90;;;;;;6277755;22;20084;-88
2022/01/30 05:42:47;;;;;;;28.50;5.65;;;8.20;99.90;;;;;;6277244;22;20003;-93
2022/01/30 05:47:50;;;;;;;48.85;7.13;;;8.20;99.90;;;;;;6315372;22;20010;-91
2022/01/30 05:50:21;;;;;;;53.67;7.03;;;8.30;99.90;;;;;;6315358;22;20343;-90
2022/01/30 05:53:37;;;;;;;;;;;;;;;;;;;;;
2022/01/30 05:56:41;;;;;;;43.20;6.20;;;8.20;99.90;;;;;;6276847;22;20078;-91
2022/01/30 05:59:10;;;;;;;53.88;7.05;;;;;;;;;;6304939;22;20011;-93
2022/01/30 06:01:40;;;;;;;;;;;8.00;99.90;;;;;;6304029;22;20004;-90
2022/01/30 06:07:55;;;;;;;39.17;6.72;;;7.90;99.90;;;;;;6211626;22;20531;-90
2022/01/30 06:10:23;;;;;;;49.58;5.85;;;8.10;99.90;;;;;;6271713;22;19996;-93
2022/01/30 06:13:01;;;;;;;;;;;;;;;;;;;;;
2022/01/30 06:15:37;;;;;;;;;;;;;;;;;;;;;
2022/01/30 06:21:01;;;;;;;42.00;5.40;;;7.90;99.90;;;;;;6241030;22;19996;-92
2022/01/30 06:23:44;;;;;;;;;;;;;;;;;;;;;
2022/01/30 06:29:14;;;;;;;45.20;7.03;;;;;;;;;;6257219;22;20002;-92
2022/01/30 06:32:07;;;;;;;40.30;5.45;;;7.90;99.90;;;;;;6273649;22;20383;-89
2022/01/30 06:42:30;;;;;;;;;;;;;;;;;;;;;
2022/01/30 06:45:43;;;;;;;43.13;5.38;;;7.90;99.90;;;;;;6006817;23;20082;-89
2022/01/30 07:12:37;;;;;;;;;;;;;;;;;;;;;
2022/01/30 07:15:14;;;;;;;44.92;5.50;;;6.90;99.90;;;;;;5786850;24;20264;-90
2022/01/30 07:18:51;;;;;;;;;;;;;;;;;;;;;
2022/01/30 07:31:38;;;;;;;44.13;6.63;;;7.60;99.90;;;;;;5781822;24;20022;-89
2022/01/30 07:34:04;;;;;;;54.92;6.22;;;;;;;;;;5842158;24;20216;-90
2022/01/30 07:37:22;;;;;;;56.33;6.63;;;7.20;99.90;;;;;;5916196;23;20402;-91
2022/01/30 07:40:44;;;;;;;;;;;;;;;;;;;;;
2022/01/30 07:44:16;;;;;;;61.72;7.00;;;7.10;99.90;;;;;;5944156;24;20064;-91
2022/01/30 07:46:43;;;;;;;51.63;5.72;;;6.80;99.90;;;;;;5949988;23;20009;-89
2022/01/30 07:55:57;;;;;;;;;;;;;;;;;;;;;
2022/01/30 07:58:27;;;;;;;40.30;5.47;;;6.50;99.90;;;;;;6007008;23;20390;-89
2022/01/30 08:01:22;;;;;;;59.25;7.07;;;6.50;99.90;;;;;;5996887;23;20386;-94
2022/01/30 08:11:40;;;;;;;;;;;;;;;;;;;;;
2022/01/30 08:38:43;;;;;;;43.17;5.28;;;;;;;;;;5771414;24;20408;-90
2022/01/30 10:04:33;;;;;;;82.00;17.27;;;7.60;99.90;;;;;;6282167;22;20097;-89
2022/01/30 10:11:26;;;;;;;;;;;;;;;;;;;;;
2022/01/30 10:13:52;;;;;;;55.97;12.70;;;7.80;99.90;;;;;;6208750;23;20005;-91
2022/01/30 10:16:59;;;;;;;;;;;7.70;99.90;;;;;;6187146;23;20369;-93
2022/01/30 10:19:28;;;;;;;48.75;9.10;;;7.80;99.90;;;;;;6156627;23;19931;-93
2022/01/30 10:22:56;;;;;;;;;;;;;;;;;;;;;
2022/01/30 10:25:41;;;;;;;;;;;;;;;;;;;;;
2022/01/30 10:35:06;;;;;;;53.53;7.38;;;8.20;99.90;;;;;;6169036;23;20008;-90
2022/01/30 10:37:40;;;;;;;60.85;7.85;;;8.30;99.90;;;;;;6210493;22;20015;-89
2022/01/30 10:40:22;;;;;;;;;;;;;;;;;;;;;
2022/01/30 10:47:16;;;;;;;61.38;7.47;;;8.70;99.90;;;;;;6184970;22;20440;-92
2022/01/30 12:34:49;;;;;;;33.00;4.97;;;9.40;88.60;;;;;;6205279;22;20090;-89
2022/01/30 12:37:56;;;;;;;31.45;5.25;;;9.70;93.60;;;;;;6308420;22;20019;-89
2022/01/30 12:41:36;;;;;;;;;;;;;;;;;;;;;
2022/01/30 12:55:05;;;;;;;;;;;;;;;;;;;;;
2022/01/30 12:58:21;;;;;;;;;;;;;;;;;;;;;
2022/01/30 13:08:43;;;;;;;;;;;;;;;;;;;;;
2022/01/30 13:21:33;;;;;;;;;;;;;;;;;;;;;
2022/01/30 13:24:53;;;;;;;;;;;;;;;;;;;;;
2022/01/30 13:28:15;;;;;;;;;;;;;;;;;;;;;
2022/01/30 13:34:58;;;;;;;;;;;;;;;;;;;;;
2022/01/30 13:48:00;;;;;;;;;;;;;;;;;;;;;
2022/01/30 13:50:44;;;;;;;;;;;;;;;;;;;;;
2022/01/30 13:57:27;;;;;;;;;;;;;;;;;;;;;
2022/01/30 14:00:52;;;;;;;;;;;;;;;;;;;;;
2022/01/30 14:11:19;;;;;;;;;;;;;;;;;;;;;
2022/01/30 14:14:56;;;;;;;;;;;;;;;;;;;;;
2022/01/30 14:18:04;;;;;;;;;;;;;;;;;;;;;
2022/01/30 14:34:23;;;;;;;;;;;;;;;;;;;;;
2022/01/30 14:37:21;;;;;;;;;;;;;;;;;;;;;
2022/01/30 14:40:05;;;;;;;;;;;;;;;;;;;;;
2022/01/30 14:48:54;;;;;;;27.67;5.55;;;9.80;85.20;;;;;;6021488;23;20008;-91
2022/01/30 14:51:29;;;;;;;;;;;9.70;86.10;;;;;;6034131;23;20007;-89
2022/01/30 16:24:07;;;;;;;34.22;8.95;;;8.60;87.80;;;;;;6262506;22;20106;-92
2022/01/30 16:26:36;;;;;;;31.00;8.65;;;8.60;89.50;;;;;;6302492;22;20035;-91
2022/01/30 17:25:40;;;;;;;39.00;11.95;;;8.00;91.70;;;;;;6142326;22;1352911;-90
2022/01/30 17:28:08;;;;;;;;;;;8.00;92.30;;;;;;6158762;23;20021;-89
2022/01/30 17:30:41;;;;;;;32.78;8.52;;;8.00;91.80;;;;;;6158879;23;19948;-91
2022/01/30 17:33:22;;;;;;;;;;;;;;;;;;;;;
2022/01/30 17:35:50;;;;;;;35.45;7.40;;;;;;;;;;6160266;23;20080;-90
2022/01/30 17:38:46;;;;;;;;;;;;;;;;;;;;;
2022/01/30 17:41:45;;;;;;;29.73;8.35;;;7.90;93.70;;;;;;6160727;23;20089;-90
2022/01/30 17:44:33;;;;;;;24.67;6.20;;;7.90;92.20;;;;;;6159398;23;20005;-90
2022/01/30 17:47:10;;;;;;;26.50;8.45;;;7.90;91.10;;;;;;6158608;23;20443;-91
2022/01/30 17:49:36;;;;;;;41.00;10.55;;;;;;;;;;6158614;23;20017;-90
2022/01/30 17:52:04;;;;;;;31.05;10.98;;;7.90;91.60;;;;;;6158328;23;20076;-90
2022/01/30 17:54:37;;;;;;;;;;;7.90;92.70;;;;;;6159472;23;20006;-90
2022/01/30 17:57:16;;;;;;;31.33;8.98;;;7.80;92.10;;;;;;6158335;23;20348;-90
2022/01/30 18:00:01;;;;;;;;;;;7.80;92.70;;;;;;6155667;23;20009;-90
2022/01/30 18:03:01;;;;;;;33.50;9.35;;;7.80;92.60;;;;;;6151235;23;20349;-92
2022/01/30 18:05:53;;;;;;;36.53;16.08;;;7.70;93.70;;;;;;6041962;23;20047;-93
2022/01/30 18:08:51;;;;;;;30.98;12.82;;;7.70;93.80;;;;;;6030827;23;20107;-94
2022/01/30 18:11:49;;;;;;;33.13;12.32;;;7.20;94.80;;;;;;6152596;23;20005;-91
2022/01/30 18:14:41;;;;;;;34.63;13.38;;;7.10;95.60;;;;;;6153337;23;20029;-91
2022/01/30 18:17:43;;;;;;;;;;;;;;;;;;;;;
2022/01/30 18:23:43;;;;;;;57.30;21.17;;;6.60;96.00;;;;;;6034249;23;20231;-88
2022/01/30 18:26:32;;;;;;;43.42;17.25;;;6.50;97.00;;;;;;6138715;23;20024;-89
2022/01/30 18:32:54;;;;;;;44.60;16.02;;;6.10;97.50;;;;;;6155406;23;20005;-90
2022/01/30 18:35:33;;;;;;;57.08;18.20;;;6.00;97.90;;;;;;6157251;23;20071;-91
2022/01/30 18:38:00;;;;;;;54.25;18.20;;;;;;;;;;6153239;23;20006;-92
2022/01/30 18:44:36;;;;;;;49.80;20.17;;;5.80;99.20;;;;;;6033657;23;20059;-93
2022/01/30 18:47:22;;;;;;;49.47;16.75;;;5.80;99.90;;;;;;6009142;23;20011;-91
2022/01/30 18:50:18;;;;;;;;;;;;;;;;;;;;;
2022/01/30 18:53:01;;;;;;;40.72;15.15;;;5.50;99.90;;;;;;6154139;23;20081;-91
2022/01/30 19:02:41;;;;;;;;;;;;;;;;;;;;;
2022/01/30 19:12:13;;;;;;;43.38;18.05;;;5.00;99.90;;;;;;6032996;23;20094;-89
2022/01/30 19:16:04;;;;;;;38.22;17.60;;;5.00;99.90;;;;;;6060357;23;20451;-92
2022/01/30 19:18:57;;;;;;;47.03;18.75;;;5.00;99.90;;;;;;6060784;23;20077;-93
2022/01/30 19:21:23;;;;;;;47.33;18.90;;;4.60;99.90;;;;;;6067726;23;20029;-88
2022/01/30 19:23:50;;;;;;;38.65;17.33;;;;;;;;;;6067003;23;20015;-88
2022/01/30 19:26:15;;;;;;;41.88;17.85;;;4.80;99.90;;;;;;6117660;23;20087;-89
2022/01/30 19:28:42;;;;;;;50.85;17.98;;;;;;;;;;6150701;23;20503;-89
2022/01/30 19:31:08;;;;;;;45.13;17.92;;;4.70;99.90;;;;;;6151275;23;20431;-89
2022/01/30 19:33:34;;;;;;;47.67;18.90;;;4.70;99.90;;;;;;6150019;23;20014;-89
2022/01/30 19:36:01;;;;;;;49.25;19.23;;;4.70;99.90;;;;;;6149609;23;20009;-91
2022/01/30 19:38:29;;;;;;;57.45;21.73;;;4.60;99.90;;;;;;6149662;23;20005;-90
2022/01/30 19:40:55;;;;;;;45.38;18.73;;;;;;;;;;6149668;23;20009;-90
2022/01/30 19:43:24;;;;;;;40.63;17.05;;;4.40;99.90;;;;;;6150306;23;20324;-90
2022/01/30 19:46:02;;;;;;;44.85;17.65;;;4.40;99.90;;;;;;6149272;23;20513;-90
2022/01/30 19:48:29;;;;;;;36.50;17.27;;;4.30;99.90;;;;;;6148988;23;20014;-90
2022/01/30 19:50:55;;;;;;;38.33;17.83;;;4.30;99.90;;;;;;6149154;23;20001;-89
2022/01/30 19:53:22;;;;;;;46.15;20.58;;;5.10;99.90;;;;;;6149583;23;20005;-88
2022/01/30 19:55:52;;;;;;;47.22;23.33;;;4.30;99.90;;;;;;6150044;23;20002;-89
2022/01/30 19:58:18;;;;;;;53.20;21.38;;;4.20;99.90;;;;;;6150464;23;20016;-91
2022/01/30 20:00:50;;;;;;;51.63;22.45;;;4.40;99.90;;;;;;6150199;23;20009;-90
2022/01/30 20:03:24;;;;;;;47.78;21.35;;;4.30;99.90;;;;;;6150348;23;20454;-91
2022/01/30 20:05:53;;;;;;;49.75;22.73;;;4.30;99.90;;;;;;6149555;23;20002;-90
2022/01/30 20:08:25;;;;;;;51.85;24.67;;;4.30;99.90;;;;;;6150284;23;20014;-90
2022/01/30 20:10:51;;;;;;;47.47;21.83;;;4.30;99.90;;;;;;6148400;23;20005;-88
2022/01/30 20:13:17;;;;;;;45.05;24.05;;;4.90;99.90;;;;;;6149283;23;20335;-87
2022/01/30 20:15:44;;;;;;;54.15;24.27;;;4.90;99.90;;;;;;6148951;23;20012;-89
2022/01/30 20:18:13;;;;;;;60.67;24.60;;;4.40;99.90;;;;;;6149316;23;20059;-88
2022/01/30 20:20:41;;;;;;;51.55;22.98;;;4.80;99.90;;;;;;6149032;23;20569;-87
2022/01/30 20:23:08;;;;;;;48.23;23.10;;;4.50;99.90;;;;;;6149322;23;20002;-88
2022/01/30 20:25:35;;;;;;;56.83;23.33;;;5.20;99.90;;;;;;6150733;23;20245;-89
2022/01/30 20:28:01;;;;;;;49.70;21.70;;;4.70;99.90;;;;;;6148498;23;20017;-88
2022/01/30 20:30:27;;;;;;;43.60;17.70;;;4.90;99.90;;;;;;6149499;23;20024;-86
2022/01/30 20:32:53;;;;;;;40.95;17.40;;;5.10;99.90;;;;;;6150119;23;20072;-87
2022/01/30 20:35:19;;;;;;;60.55;20.60;;;5.40;99.90;;;;;;6151998;23;20021;-87
2022/01/30 20:37:45;;;;;;;76.65;34.90;;;5.60;99.90;;;;;;6149777;23;20009;-87
2022/01/30 20:40:12;;;;;;;54.45;20.00;;;6.00;99.90;;;;;;6150124;23;20002;-88
2022/01/30 20:42:39;;;;;;;45.15;19.48;;;5.80;99.90;;;;;;6149779;23;20005;-87
2022/01/30 20:45:06;;;;;;;60.92;19.13;;;5.90;99.90;;;;;;6149572;23;20012;-88
2022/01/30 20:47:32;;;;;;;45.10;18.90;;;5.90;99.90;;;;;;6151389;23;20328;-87
2022/01/30 20:49:58;;;;;;;49.70;18.67;;;6.00;99.90;;;;;;6151615;23;20035;-88
2022/01/30 20:52:23;;;;;;;46.53;17.17;;;5.90;99.90;;;;;;6150000;23;20080;-90
2022/01/30 20:54:52;;;;;;;48.85;19.00;;;6.00;99.90;;;;;;6151024;23;20005;-89
2022/01/30 20:57:22;;;;;;;51.28;18.20;;;6.10;99.90;;;;;;6150977;23;20453;-87
2022/01/30 20:59:49;;;;;;;59.58;18.73;;;6.10;99.90;;;;;;6153138;23;20005;-88
2022/01/30 21:02:15;;;;;;;56.78;18.13;;;6.10;99.90;;;;;;6156489;23;20105;-88
2022/01/30 21:04:41;;;;;;;45.35;17.52;;;6.10;99.90;;;;;;6157026;23;20001;-89
2022/01/30 21:07:07;;;;;;;44.42;18.08;;;;;;;;;;6156852;23;20036;-89
2022/01/30 21:09:38;;;;;;;47.65;17.33;;;6.20;99.90;;;;;;6151095;23;20013;-87
2022/01/30 21:12:04;;;;;;;41.90;16.35;;;6.20;99.90;;;;;;6149044;23;20006;-87
2022/01/30 21:14:30;;;;;;;65.68;18.92;;;6.10;99.90;;;;;;6150869;23;20077;-88
2022/01/30 21:16:56;;;;;;;59.70;24.70;;;6.10;99.90;;;;;;6150293;23;20025;-86
2022/01/30 21:19:21;;;;;;;62.70;24.88;;;6.10;99.90;;;;;;6149445;23;20006;-87
2022/01/30 21:21:47;;;;;;;56.00;18.67;;;6.10;99.90;;;;;;6150496;23;19997;-87
2022/01/30 21:24:13;;;;;;;45.70;17.48;;;5.90;99.90;;;;;;6150763;23;20006;-88
2022/01/30 21:26:39;;;;;;;49.13;16.02;;;5.90;99.90;;;;;;6149778;23;20010;-87
2022/01/30 21:29:06;;;;;;;47.85;14.30;;;5.90;99.90;;;;;;6151234;23;20060;-87
2022/01/30 21:31:32;;;;;;;42.22;14.65;;;6.00;99.90;;;;;;6149773;23;20453;-88
2022/01/30 21:33:58;;;;;;;41.10;14.48;;;6.10;99.90;;;;;;6150048;23;20005;-87
2022/01/30 21:36:24;;;;;;;53.85;15.57;;;6.10;99.90;;;;;;6153193;23;20002;-87
2022/01/30 21:38:50;;;;;;;39.78;15.55;;;6.10;99.90;;;;;;6153598;23;20004;-88
2022/01/30 21:41:15;;;;;;;45.70;14.82;;;6.20;99.90;;;;;;6151792;23;20509;-88
2022/01/30 21:43:41;;;;;;;46.20;15.18;;;6.10;99.90;;;;;;6151894;23;20001;-86
2022/01/30 21:46:07;;;;;;;44.40;14.63;;;6.20;99.90;;;;;;6152933;23;20029;-88
2022/01/30 21:48:33;;;;;;;47.72;18.65;;;6.20;99.90;;;;;;6151319;23;20017;-87
2022/01/30 21:50:58;;;;;;;49.08;20.95;;;6.30;99.90;;;;;;6151401;23;20008;-87
2022/01/30 21:53:24;;;;;;;51.38;18.92;;;6.20;99.90;;;;;;6151348;23;20089;-88
2022/01/30 21:55:50;;;;;;;46.38;18.38;;;6.30;99.80;;;;;;6153685;23;20001;-88
2022/01/30 21:58:17;;;;;;;44.53;14.95;;;6.30;99.90;;;;;;6152753;23;20457;-87
2022/01/30 22:00:42;;;;;;;41.75;15.20;;;6.20;99.70;;;;;;6153249;23;20052;-87
2022/01/30 22:03:08;;;;;;;40.67;14.70;;;6.20;99.90;;;;;;6150611;23;20037;-88
2022/01/30 22:05:37;;;;;;;37.08;14.80;;;6.30;99.90;;;;;;6151370;23;20012;-87
2022/01/30 22:08:03;;;;;;;40.72;13.82;;;6.30;99.90;;;;;;6151328;23;20104;-88
2022/01/30 22:10:28;;;;;;;48.72;13.88;;;6.30;99.90;;;;;;6150881;23;20033;-87
2022/01/30 22:13:00;;;;;;;44.65;16.85;;;6.30;99.90;;;;;;6153472;23;20048;-87
2022/01/30 22:15:26;;;;;;;48.83;16.85;;;6.30;99.70;;;;;;6153088;23;20072;-87
2022/01/30 22:17:52;;;;;;;47.90;16.40;;;;;;;;;;6152424;23;20060;-88
2022/01/30 22:20:19;;;;;;;48.00;14.10;;;6.30;99.20;;;;;;6151656;23;20028;-88
2022/01/30 22:22:46;;;;;;;47.28;15.02;;;6.30;99.80;;;;;;6151596;23;20091;-88
2022/01/30 22:25:13;;;;;;;36.75;14.25;;;6.40;99.90;;;;;;6150956;23;20080;-88
2022/01/30 22:27:40;;;;;;;38.13;14.45;;;6.30;99.90;;;;;;6152940;23;20453;-88
2022/01/30 22:30:11;;;;;;;47.40;15.40;;;6.30;99.80;;;;;;6150851;23;20006;-89
2022/01/30 22:32:39;;;;;;;38.10;14.20;;;6.30;99.90;;;;;;6151382;23;20040;-87
2022/01/30 22:35:06;;;;;;;42.17;15.52;;;6.20;99.90;;;;;;6151307;23;20040;-88
2022/01/30 22:37:33;;;;;;;36.10;13.65;;;6.30;99.90;;;;;;6152415;23;20002;-89
2022/01/30 22:39:59;;;;;;;42.20;13.77;;;6.30;99.90;;;;;;6151176;23;20006;-88
2022/01/30 22:42:27;;;;;;;33.30;13.27;;;6.30;99.90;;;;;;6151540;23;20013;-88
2022/01/30 22:44:53;;;;;;;31.77;12.27;;;6.30;99.90;;;;;;6153575;23;20001;-87
2022/01/30 22:47:19;;;;;;;41.90;12.40;;;6.30;99.90;;;;;;6152613;23;20001;-88
2022/01/30 22:49:45;;;;;;;41.83;12.90;;;6.40;99.90;;;;;;6151089;23;20358;-88
2022/01/30 22:52:11;;;;;;;34.08;12.52;;;6.40;99.90;;;;;;6152176;23;19998;-88
2022/01/30 22:54:37;;;;;;;39.63;12.63;;;6.40;99.90;;;;;;6151353;23;20008;-88
2022/01/30 22:57:07;;;;;;;43.95;13.13;;;6.40;99.90;;;;;;6151109;23;20028;-87
2022/01/30 22:59:33;;;;;;;41.30;13.05;;;6.40;99.90;;;;;;6150931;23;20012;-88
2022/01/30 23:02:00;;;;;;;45.42;13.65;;;6.30;99.90;;;;;;6150871;23;20056;-89
2022/01/30 23:04:26;;;;;;;37.88;13.32;;;6.40;99.90;;;;;;6153481;23;20080;-89
2022/01/30 23:06:52;;;;;;;34.85;12.93;;;6.40;99.90;;;;;;6151459;23;20006;-88
2022/01/30 23:09:17;;;;;;;33.20;13.40;;;6.40;99.90;;;;;;6151189;23;20533;-88
2022/01/30 23:11:43;;;;;;;39.20;13.15;;;6.40;99.90;;;;;;6150803;23;20339;-88
2022/01/30 23:14:09;;;;;;;36.53;13.05;;;6.40;99.90;;;;;;6152226;23;20009;-88
2022/01/30 23:16:34;;;;;;;40.40;12.63;;;6.40;99.90;;;;;;6151659;23;20284;-86
2022/01/30 23:19:00;;;;;;;40.58;12.27;;;6.40;99.90;;;;;;6151861;23;19997;-88
2022/01/30 23:21:28;;;;;;;40.15;12.38;;;6.40;99.90;;;;;;6152052;23;20043;-87
2022/01/30 23:23:58;;;;;;;40.43;12.70;;;6.40;99.90;;;;;;6151870;23;20002;-87
2022/01/30 23:26:28;;;;;;;37.88;11.57;;;6.20;99.90;;;;;;6153230;23;20080;-88
2022/01/30 23:28:55;;;;;;;41.03;11.85;;;6.20;99.90;;;;;;6152369;23;20129;-88
2022/01/30 23:31:21;;;;;;;40.47;11.18;;;6.30;99.90;;;;;;6151113;23;20048;-88
2022/01/30 23:33:47;;;;;;;42.85;11.35;;;6.30;99.90;;;;;;6156659;23;20088;-87
2022/01/30 23:36:13;;;;;;;38.45;10.68;;;6.30;99.90;;;;;;6155960;23;20001;-87
2022/01/30 23:38:43;;;;;;;33.58;10.60;;;6.30;99.90;;;;;;6156982;23;20033;-88
2022/01/30 23:41:20;;;;;;;29.60;10.13;;;6.40;99.90;;;;;;6151193;23;20006;-87
2022/01/30 23:43:46;;;;;;;41.58;10.25;;;6.50;99.90;;;;;;6152310;23;20006;-87
2022/01/30 23:46:14;;;;;;;31.73;9.93;;;6.30;99.90;;;;;;6151066;23;20008;-87
2022/01/30 23:48:39;;;;;;;36.42;10.63;;;6.10;99.90;;;;;;6150028;23;20410;-87
2022/01/30 23:51:05;;;;;;;28.48;10.00;;;6.00;99.90;;;;;;6150743;23;20005;-87
2022/01/30 23:53:31;;;;;;;32.83;9.57;;;5.90;99.90;;;;;;6150613;23;20412;-88
2022/01/30 23:55:56;;;;;;;35.03;10.98;;;5.90;99.90;;;;;;6152676;23;20314;-87
2022/01/30 23:58:22;;;;;;;40.17;10.80;;;5.90;99.90;;;;;;6150151;23;20033;-87
